sensor_id;sensor_type;location;lat;lon;timestamp;P1;durP1;ratioP1;P2;durP2;ratioP2
75156;SDS011;63736;50.076;8.198;2024-03-17T00:01:21;9.60;;;4.30;;
75156;SDS011;63736;50.076;8.198;2024-03-17T00:02:51;8.27;;;3.70;;
75156;SDS011;63736;50.076;8.198;2024-03-17T00:04:21;10.47;;;5.00;;
75156;SDS011;63736;50.076;8.198;2024-03-17T00:05:58;9.50;;;4.60;;
75156;SDS011;63736;50.076;8.198;2024-03-17T00:07:29;11.70;;;5.88;;
75156;SDS011;63736;50.076;8.198;2024-03-17T00:08:59;9.30;;;4.37;;
75156;SDS011;63736;50.076;8.198;2024-03-17T00:10:36;7.00;;;2.92;;
75156;SDS011;63736;50.076;8.198;2024-03-17T00:12:07;5.68;;;2.53;;
75156;SDS011;63736;50.076;8.198;2024-03-17T00:13:38;6.20;;;2.50;;
75156;SDS011;63736;50.076;8.198;2024-03-17T00:15:08;5.87;;;2.50;;
75156;SDS011;63736;50.076;8.198;2024-03-17T00:16:38;5.87;;;2.57;;
75156;SDS011;63736;50.076;8.198;2024-03-17T00:18:09;6.23;;;2.40;;
75156;SDS011;63736;50.076;8.198;2024-03-17T00:19:40;5.35;;;2.20;;
75156;SDS011;63736;50.076;8.198;2024-03-17T00:21:11;5.35;;;2.35;;
75156;SDS011;63736;50.076;8.198;2024-03-17T00:22:41;7.67;;;2.60;;
75156;SDS011;63736;50.076;8.198;2024-03-17T00:24:11;5.97;;;2.10;;
75156;SDS011;63736;50.076;8.198;2024-03-17T00:25:43;6.78;;;2.30;;
75156;SDS011;63736;50.076;8.198;2024-03-17T00:27:13;6.73;;;2.70;;
75156;SDS011;63736;50.076;8.198;2024-03-17T00:28:43;5.80;;;2.23;;
75156;SDS011;63736;50.076;8.198;2024-03-17T00:30:16;5.10;;;2.35;;
75156;SDS011;63736;50.076;8.198;2024-03-17T00:31:48;7.13;;;2.65;;
75156;SDS011;63736;50.076;8.198;2024-03-17T00:33:18;5.27;;;2.27;;
75156;SDS011;63736;50.076;8.198;2024-03-17T00:34:49;6.03;;;2.33;;
75156;SDS011;63736;50.076;8.198;2024-03-17T00:36:19;5.25;;;2.10;;
75156;SDS011;63736;50.076;8.198;2024-03-17T00:37:50;4.47;;;2.00;;
75156;SDS011;63736;50.076;8.198;2024-03-17T00:39:20;5.93;;;2.03;;
75156;SDS011;63736;50.076;8.198;2024-03-17T00:40:51;5.20;;;2.03;;
75156;SDS011;63736;50.076;8.198;2024-03-17T00:42:21;6.50;;;2.30;;
75156;SDS011;63736;50.076;8.198;2024-03-17T00:43:51;6.03;;;2.37;;
75156;SDS011;63736;50.076;8.198;2024-03-17T00:45:22;6.33;;;2.20;;
75156;SDS011;63736;50.076;8.198;2024-03-17T00:46:52;6.60;;;2.13;;
75156;SDS011;63736;50.076;8.198;2024-03-17T00:48:24;4.93;;;2.17;;
75156;SDS011;63736;50.076;8.198;2024-03-17T00:49:54;4.97;;;2.50;;
75156;SDS011;63736;50.076;8.198;2024-03-17T00:51:25;4.87;;;2.17;;
75156;SDS011;63736;50.076;8.198;2024-03-17T00:52:55;5.87;;;1.90;;
75156;SDS011;63736;50.076;8.198;2024-03-17T00:54:25;4.47;;;1.80;;
75156;SDS011;63736;50.076;8.198;2024-03-17T00:55:56;6.57;;;2.20;;
75156;SDS011;63736;50.076;8.198;2024-03-17T00:57:30;5.15;;;2.33;;
75156;SDS011;63736;50.076;8.198;2024-03-17T00:59:01;5.77;;;1.70;;
75156;SDS011;63736;50.076;8.198;2024-03-17T01:00:31;6.23;;;1.97;;
75156;SDS011;63736;50.076;8.198;2024-03-17T01:02:03;6.50;;;1.98;;
75156;SDS011;63736;50.076;8.198;2024-03-17T01:03:33;6.33;;;2.40;;
75156;SDS011;63736;50.076;8.198;2024-03-17T01:05:03;5.60;;;2.17;;
75156;SDS011;63736;50.076;8.198;2024-03-17T01:06:35;7.20;;;2.10;;
75156;SDS011;63736;50.076;8.198;2024-03-17T01:08:06;5.82;;;1.90;;
75156;SDS011;63736;50.076;8.198;2024-03-17T01:09:36;6.50;;;2.33;;
75156;SDS011;63736;50.076;8.198;2024-03-17T01:11:07;4.90;;;2.00;;
75156;SDS011;63736;50.076;8.198;2024-03-17T01:12:38;5.60;;;2.50;;
75156;SDS011;63736;50.076;8.198;2024-03-17T01:14:09;5.68;;;2.35;;
75156;SDS011;63736;50.076;8.198;2024-03-17T01:15:39;7.43;;;2.40;;
75156;SDS011;63736;50.076;8.198;2024-03-17T01:17:09;9.27;;;2.50;;
75156;SDS011;63736;50.076;8.198;2024-03-17T01:18:39;5.07;;;2.20;;
75156;SDS011;63736;50.076;8.198;2024-03-17T01:20:10;4.90;;;2.00;;
75156;SDS011;63736;50.076;8.198;2024-03-17T01:21:40;5.47;;;2.10;;
75156;SDS011;63736;50.076;8.198;2024-03-17T01:23:10;6.68;;;2.10;;
75156;SDS011;63736;50.076;8.198;2024-03-17T01:24:41;5.10;;;2.17;;
75156;SDS011;63736;50.076;8.198;2024-03-17T01:26:16;5.20;;;1.90;;
75156;SDS011;63736;50.076;8.198;2024-03-17T01:27:46;5.90;;;1.90;;
75156;SDS011;63736;50.076;8.198;2024-03-17T01:29:16;5.50;;;2.07;;
75156;SDS011;63736;50.076;8.198;2024-03-17T01:30:47;5.40;;;2.03;;
75156;SDS011;63736;50.076;8.198;2024-03-17T01:32:18;5.85;;;2.30;;
75156;SDS011;63736;50.076;8.198;2024-03-17T01:33:49;7.72;;;1.90;;
75156;SDS011;63736;50.076;8.198;2024-03-17T01:35:20;5.75;;;1.90;;
75156;SDS011;63736;50.076;8.198;2024-03-17T01:36:50;4.80;;;1.80;;
75156;SDS011;63736;50.076;8.198;2024-03-17T01:38:21;5.10;;;1.80;;
75156;SDS011;63736;50.076;8.198;2024-03-17T01:39:51;5.43;;;2.00;;
75156;SDS011;63736;50.076;8.198;2024-03-17T01:41:21;6.23;;;2.10;;
75156;SDS011;63736;50.076;8.198;2024-03-17T01:42:51;5.50;;;2.30;;
75156;SDS011;63736;50.076;8.198;2024-03-17T01:44:22;6.13;;;1.80;;
75156;SDS011;63736;50.076;8.198;2024-03-17T01:45:54;5.03;;;2.07;;
75156;SDS011;63736;50.076;8.198;2024-03-17T01:47:24;5.40;;;2.00;;
75156;SDS011;63736;50.076;8.198;2024-03-17T01:48:55;7.53;;;2.00;;
75156;SDS011;63736;50.076;8.198;2024-03-17T01:50:26;6.50;;;2.50;;
75156;SDS011;63736;50.076;8.198;2024-03-17T01:52:04;4.90;;;2.17;;
75156;SDS011;63736;50.076;8.198;2024-03-17T01:53:36;8.25;;;2.53;;
75156;SDS011;63736;50.076;8.198;2024-03-17T01:55:07;7.72;;;2.30;;
75156;SDS011;63736;50.076;8.198;2024-03-17T01:56:38;6.50;;;2.40;;
75156;SDS011;63736;50.076;8.198;2024-03-17T01:58:09;5.68;;;2.30;;
75156;SDS011;63736;50.076;8.198;2024-03-17T01:59:43;5.00;;;2.13;;
75156;SDS011;63736;50.076;8.198;2024-03-17T02:01:13;6.70;;;2.50;;
75156;SDS011;63736;50.076;8.198;2024-03-17T02:02:46;6.77;;;2.20;;
75156;SDS011;63736;50.076;8.198;2024-03-17T02:04:17;5.97;;;2.40;;
75156;SDS011;63736;50.076;8.198;2024-03-17T02:05:47;5.80;;;2.40;;
75156;SDS011;63736;50.076;8.198;2024-03-17T02:07:18;7.20;;;2.47;;
75156;SDS011;63736;50.076;8.198;2024-03-17T02:08:49;7.50;;;2.57;;
75156;SDS011;63736;50.076;8.198;2024-03-17T02:10:20;6.50;;;2.45;;
75156;SDS011;63736;50.076;8.198;2024-03-17T02:11:51;7.80;;;2.67;;
75156;SDS011;63736;50.076;8.198;2024-03-17T02:13:21;6.67;;;2.73;;
75156;SDS011;63736;50.076;8.198;2024-03-17T02:14:52;5.43;;;2.30;;
75156;SDS011;63736;50.076;8.198;2024-03-17T02:16:23;7.40;;;2.60;;
75156;SDS011;63736;50.076;8.198;2024-03-17T02:17:54;6.20;;;2.63;;
75156;SDS011;63736;50.076;8.198;2024-03-17T02:19:25;6.35;;;2.50;;
75156;SDS011;63736;50.076;8.198;2024-03-17T02:20:55;5.97;;;2.70;;
75156;SDS011;63736;50.076;8.198;2024-03-17T02:22:28;6.30;;;2.92;;
75156;SDS011;63736;50.076;8.198;2024-03-17T02:23:58;7.23;;;3.07;;
75156;SDS011;63736;50.076;8.198;2024-03-17T02:25:28;7.57;;;2.93;;
75156;SDS011;63736;50.076;8.198;2024-03-17T02:26:59;7.23;;;3.13;;
75156;SDS011;63736;50.076;8.198;2024-03-17T02:28:29;10.30;;;3.10;;
75156;SDS011;63736;50.076;8.198;2024-03-17T02:30:07;9.13;;;3.80;;
75156;SDS011;63736;50.076;8.198;2024-03-17T02:31:39;6.75;;;3.05;;
75156;SDS011;63736;50.076;8.198;2024-03-17T02:33:09;9.60;;;4.40;;
75156;SDS011;63736;50.076;8.198;2024-03-17T02:34:39;11.07;;;4.23;;
75156;SDS011;63736;50.076;8.198;2024-03-17T02:36:11;9.05;;;3.72;;
75156;SDS011;63736;50.076;8.198;2024-03-17T02:37:42;8.30;;;3.60;;
75156;SDS011;63736;50.076;8.198;2024-03-17T02:39:12;10.07;;;3.77;;
75156;SDS011;63736;50.076;8.198;2024-03-17T02:41:01;8.35;;;3.70;;
75156;SDS011;63736;50.076;8.198;2024-03-17T02:42:31;11.87;;;3.93;;
75156;SDS011;63736;50.076;8.198;2024-03-17T02:44:02;8.43;;;3.97;;
75156;SDS011;63736;50.076;8.198;2024-03-17T02:45:32;9.48;;;3.53;;
75156;SDS011;63736;50.076;8.198;2024-03-17T02:47:03;9.83;;;3.97;;
75156;SDS011;63736;50.076;8.198;2024-03-17T02:48:35;10.88;;;3.80;;
75156;SDS011;63736;50.076;8.198;2024-03-17T02:50:07;13.77;;;4.53;;
75156;SDS011;63736;50.076;8.198;2024-03-17T02:51:39;9.13;;;3.80;;
75156;SDS011;63736;50.076;8.198;2024-03-17T02:53:09;12.33;;;4.63;;
75156;SDS011;63736;50.076;8.198;2024-03-17T02:54:39;8.67;;;3.87;;
75156;SDS011;63736;50.076;8.198;2024-03-17T02:56:10;11.77;;;4.20;;
75156;SDS011;63736;50.076;8.198;2024-03-17T02:57:41;8.90;;;3.78;;
75156;SDS011;63736;50.076;8.198;2024-03-17T02:59:11;10.67;;;4.57;;
75156;SDS011;63736;50.076;8.198;2024-03-17T03:00:42;10.77;;;4.60;;
75156;SDS011;63736;50.076;8.198;2024-03-17T03:02:12;11.97;;;3.93;;
75156;SDS011;63736;50.076;8.198;2024-03-17T03:03:42;10.50;;;4.03;;
75156;SDS011;63736;50.076;8.198;2024-03-17T03:05:13;11.18;;;4.28;;
75156;SDS011;63736;50.076;8.198;2024-03-17T03:06:43;10.40;;;3.70;;
75156;SDS011;63736;50.076;8.198;2024-03-17T03:08:13;10.80;;;3.73;;
75156;SDS011;63736;50.076;8.198;2024-03-17T03:09:44;10.10;;;3.73;;
75156;SDS011;63736;50.076;8.198;2024-03-17T03:11:16;10.88;;;4.03;;
75156;SDS011;63736;50.076;8.198;2024-03-17T03:12:47;9.47;;;4.10;;
75156;SDS011;63736;50.076;8.198;2024-03-17T03:14:17;8.73;;;3.67;;
75156;SDS011;63736;50.076;8.198;2024-03-17T03:15:49;10.10;;;3.65;;
75156;SDS011;63736;50.076;8.198;2024-03-17T03:17:19;10.00;;;3.60;;
75156;SDS011;63736;50.076;8.198;2024-03-17T03:18:50;8.47;;;3.67;;
75156;SDS011;63736;50.076;8.198;2024-03-17T03:20:20;10.57;;;4.50;;
75156;SDS011;63736;50.076;8.198;2024-03-17T03:21:51;12.27;;;4.20;;
75156;SDS011;63736;50.076;8.198;2024-03-17T03:23:22;11.80;;;3.93;;
75156;SDS011;63736;50.076;8.198;2024-03-17T03:24:52;12.57;;;3.73;;
75156;SDS011;63736;50.076;8.198;2024-03-17T03:26:23;13.03;;;4.83;;
75156;SDS011;63736;50.076;8.198;2024-03-17T03:27:56;8.68;;;3.50;;
75156;SDS011;63736;50.076;8.198;2024-03-17T03:29:27;8.30;;;3.95;;
75156;SDS011;63736;50.076;8.198;2024-03-17T03:30:58;9.97;;;3.70;;
75156;SDS011;63736;50.076;8.198;2024-03-17T03:32:29;10.02;;;4.15;;
75156;SDS011;63736;50.076;8.198;2024-03-17T03:33:59;8.30;;;3.00;;
75156;SDS011;63736;50.076;8.198;2024-03-17T03:35:31;9.18;;;3.22;;
75156;SDS011;63736;50.076;8.198;2024-03-17T03:37:01;9.18;;;3.83;;
75156;SDS011;63736;50.076;8.198;2024-03-17T03:38:32;7.57;;;3.20;;
75156;SDS011;63736;50.076;8.198;2024-03-17T03:40:03;8.98;;;3.53;;
75156;SDS011;63736;50.076;8.198;2024-03-17T03:41:46;6.70;;;3.10;;
75156;SDS011;63736;50.076;8.198;2024-03-17T03:43:16;10.77;;;3.40;;
75156;SDS011;63736;50.076;8.198;2024-03-17T03:44:47;10.27;;;4.10;;
75156;SDS011;63736;50.076;8.198;2024-03-17T03:46:19;9.30;;;3.95;;
75156;SDS011;63736;50.076;8.198;2024-03-17T03:47:50;7.50;;;3.53;;
75156;SDS011;63736;50.076;8.198;2024-03-17T03:49:21;8.23;;;3.40;;
75156;SDS011;63736;50.076;8.198;2024-03-17T03:50:51;9.33;;;3.20;;
75156;SDS011;63736;50.076;8.198;2024-03-17T03:52:21;7.37;;;3.10;;
75156;SDS011;63736;50.076;8.198;2024-03-17T03:53:52;8.40;;;3.80;;
75156;SDS011;63736;50.076;8.198;2024-03-17T03:55:22;8.20;;;3.93;;
75156;SDS011;63736;50.076;8.198;2024-03-17T03:56:53;12.88;;;3.70;;
75156;SDS011;63736;50.076;8.198;2024-03-17T03:58:24;7.73;;;3.27;;
75156;SDS011;63736;50.076;8.198;2024-03-17T03:59:54;11.07;;;3.87;;
75156;SDS011;63736;50.076;8.198;2024-03-17T04:01:25;6.93;;;2.83;;
75156;SDS011;63736;50.076;8.198;2024-03-17T04:02:55;7.57;;;2.77;;
75156;SDS011;63736;50.076;8.198;2024-03-17T04:04:26;6.90;;;2.97;;
75156;SDS011;63736;50.076;8.198;2024-03-17T04:06:01;7.80;;;3.20;;
75156;SDS011;63736;50.076;8.198;2024-03-17T04:07:36;8.00;;;3.50;;
75156;SDS011;63736;50.076;8.198;2024-03-17T04:09:07;9.95;;;3.88;;
75156;SDS011;63736;50.076;8.198;2024-03-17T04:10:39;7.25;;;3.08;;
75156;SDS011;63736;50.076;8.198;2024-03-17T04:12:09;8.63;;;3.87;;
75156;SDS011;63736;50.076;8.198;2024-03-17T04:13:39;8.77;;;3.27;;
75156;SDS011;63736;50.076;8.198;2024-03-17T04:15:11;8.98;;;3.67;;
75156;SDS011;63736;50.076;8.198;2024-03-17T04:16:41;8.63;;;4.00;;
75156;SDS011;63736;50.076;8.198;2024-03-17T04:18:11;7.70;;;3.07;;
75156;SDS011;63736;50.076;8.198;2024-03-17T04:19:42;9.57;;;3.50;;
75156;SDS011;63736;50.076;8.198;2024-03-17T04:21:12;8.57;;;3.30;;
75156;SDS011;63736;50.076;8.198;2024-03-17T04:22:42;6.67;;;2.93;;
75156;SDS011;63736;50.076;8.198;2024-03-17T04:24:13;8.90;;;3.03;;
75156;SDS011;63736;50.076;8.198;2024-03-17T04:25:43;8.57;;;2.90;;
75156;SDS011;63736;50.076;8.198;2024-03-17T04:27:13;6.97;;;2.67;;
75156;SDS011;63736;50.076;8.198;2024-03-17T04:28:44;6.37;;;2.70;;
75156;SDS011;63736;50.076;8.198;2024-03-17T04:30:15;7.70;;;3.05;;
75156;SDS011;63736;50.076;8.198;2024-03-17T04:31:46;6.93;;;2.92;;
75156;SDS011;63736;50.076;8.198;2024-03-17T04:33:18;6.78;;;3.05;;
75156;SDS011;63736;50.076;8.198;2024-03-17T04:34:49;9.67;;;3.50;;
75156;SDS011;63736;50.076;8.198;2024-03-17T04:36:19;7.00;;;3.20;;
75156;SDS011;63736;50.076;8.198;2024-03-17T04:37:49;6.27;;;2.97;;
75156;SDS011;63736;50.076;8.198;2024-03-17T04:39:20;9.50;;;3.67;;
75156;SDS011;63736;50.076;8.198;2024-03-17T04:40:50;7.27;;;3.30;;
75156;SDS011;63736;50.076;8.198;2024-03-17T04:42:21;9.73;;;3.30;;
75156;SDS011;63736;50.076;8.198;2024-03-17T04:43:51;7.30;;;3.20;;
75156;SDS011;63736;50.076;8.198;2024-03-17T04:45:23;8.67;;;3.27;;
75156;SDS011;63736;50.076;8.198;2024-03-17T04:46:54;8.03;;;3.03;;
75156;SDS011;63736;50.076;8.198;2024-03-17T04:48:24;10.02;;;3.40;;
75156;SDS011;63736;50.076;8.198;2024-03-17T04:49:54;8.50;;;3.80;;
75156;SDS011;63736;50.076;8.198;2024-03-17T04:51:24;9.83;;;3.60;;
75156;SDS011;63736;50.076;8.198;2024-03-17T04:52:55;9.73;;;2.83;;
75156;SDS011;63736;50.076;8.198;2024-03-17T04:54:25;10.30;;;3.40;;
75156;SDS011;63736;50.076;8.198;2024-03-17T04:55:59;7.20;;;3.13;;
75156;SDS011;63736;50.076;8.198;2024-03-17T04:57:34;7.30;;;2.72;;
75156;SDS011;63736;50.076;8.198;2024-03-17T04:59:05;7.30;;;2.80;;
75156;SDS011;63736;50.076;8.198;2024-03-17T05:00:36;7.50;;;2.90;;
75156;SDS011;63736;50.076;8.198;2024-03-17T05:02:06;6.67;;;2.70;;
75156;SDS011;63736;50.076;8.198;2024-03-17T05:03:37;6.70;;;2.75;;
75156;SDS011;63736;50.076;8.198;2024-03-17T05:05:07;9.00;;;2.90;;
75156;SDS011;63736;50.076;8.198;2024-03-17T05:06:38;7.95;;;3.30;;
75156;SDS011;63736;50.076;8.198;2024-03-17T05:08:08;8.77;;;3.03;;
75156;SDS011;63736;50.076;8.198;2024-03-17T05:09:38;7.63;;;2.90;;
75156;SDS011;63736;50.076;8.198;2024-03-17T05:11:09;6.60;;;2.60;;
75156;SDS011;63736;50.076;8.198;2024-03-17T05:12:40;7.85;;;3.40;;
75156;SDS011;63736;50.076;8.198;2024-03-17T05:14:10;6.60;;;3.07;;
75156;SDS011;63736;50.076;8.198;2024-03-17T05:15:41;8.23;;;3.30;;
75156;SDS011;63736;50.076;8.198;2024-03-17T05:17:11;9.30;;;4.13;;
75156;SDS011;63736;50.076;8.198;2024-03-17T05:18:41;10.67;;;4.43;;
75156;SDS011;63736;50.076;8.198;2024-03-17T05:20:13;9.93;;;3.80;;
75156;SDS011;63736;50.076;8.198;2024-03-17T05:21:44;8.60;;;3.50;;
75156;SDS011;63736;50.076;8.198;2024-03-17T05:23:15;8.95;;;3.45;;
75156;SDS011;63736;50.076;8.198;2024-03-17T05:24:45;8.17;;;3.10;;
75156;SDS011;63736;50.076;8.198;2024-03-17T05:26:15;6.43;;;3.00;;
75156;SDS011;63736;50.076;8.198;2024-03-17T05:27:46;7.23;;;3.07;;
75156;SDS011;63736;50.076;8.198;2024-03-17T05:29:16;8.23;;;3.00;;
75156;SDS011;63736;50.076;8.198;2024-03-17T05:30:46;6.90;;;3.33;;
75156;SDS011;63736;50.076;8.198;2024-03-17T05:32:18;7.20;;;2.70;;
75156;SDS011;63736;50.076;8.198;2024-03-17T05:33:48;6.53;;;3.00;;
75156;SDS011;63736;50.076;8.198;2024-03-17T05:35:19;6.00;;;2.80;;
75156;SDS011;63736;50.076;8.198;2024-03-17T05:36:50;8.37;;;2.70;;
75156;SDS011;63736;50.076;8.198;2024-03-17T05:38:24;7.63;;;3.08;;
75156;SDS011;63736;50.076;8.198;2024-03-17T05:39:55;6.18;;;2.70;;
75156;SDS011;63736;50.076;8.198;2024-03-17T05:41:26;6.07;;;2.70;;
75156;SDS011;63736;50.076;8.198;2024-03-17T05:42:56;10.10;;;4.40;;
75156;SDS011;63736;50.076;8.198;2024-03-17T05:44:26;8.32;;;3.67;;
75156;SDS011;63736;50.076;8.198;2024-03-17T05:46:00;7.63;;;2.90;;
75156;SDS011;63736;50.076;8.198;2024-03-17T05:47:31;8.00;;;3.38;;
75156;SDS011;63736;50.076;8.198;2024-03-17T05:49:01;7.10;;;3.13;;
75156;SDS011;63736;50.076;8.198;2024-03-17T05:50:34;8.77;;;3.20;;
75156;SDS011;63736;50.076;8.198;2024-03-17T05:52:05;6.78;;;2.53;;
75156;SDS011;63736;50.076;8.198;2024-03-17T05:53:37;8.02;;;2.95;;
75156;SDS011;63736;50.076;8.198;2024-03-17T05:55:10;7.13;;;2.70;;
75156;SDS011;63736;50.076;8.198;2024-03-17T05:56:41;6.50;;;2.50;;
75156;SDS011;63736;50.076;8.198;2024-03-17T05:58:11;8.83;;;2.70;;
75156;SDS011;63736;50.076;8.198;2024-03-17T05:59:42;8.67;;;2.60;;
75156;SDS011;63736;50.076;8.198;2024-03-17T06:01:12;5.68;;;2.47;;
75156;SDS011;63736;50.076;8.198;2024-03-17T06:02:43;6.87;;;3.23;;
75156;SDS011;63736;50.076;8.198;2024-03-17T06:04:14;6.15;;;2.83;;
75156;SDS011;63736;50.076;8.198;2024-03-17T06:05:44;8.27;;;3.83;;
75156;SDS011;63736;50.076;8.198;2024-03-17T06:07:17;13.27;;;5.53;;
75156;SDS011;63736;50.076;8.198;2024-03-17T06:08:48;12.10;;;6.23;;
75156;SDS011;63736;50.076;8.198;2024-03-17T06:10:19;13.90;;;7.38;;
75156;SDS011;63736;50.076;8.198;2024-03-17T06:11:54;10.52;;;4.50;;
75156;SDS011;63736;50.076;8.198;2024-03-17T06:13:24;8.73;;;3.90;;
75156;SDS011;63736;50.076;8.198;2024-03-17T06:14:54;9.03;;;4.27;;
75156;SDS011;63736;50.076;8.198;2024-03-17T06:16:25;9.13;;;4.30;;
75156;SDS011;63736;50.076;8.198;2024-03-17T06:17:55;10.13;;;4.10;;
75156;SDS011;63736;50.076;8.198;2024-03-17T06:19:25;10.43;;;4.07;;
75156;SDS011;63736;50.076;8.198;2024-03-17T06:20:56;8.00;;;3.40;;
75156;SDS011;63736;50.076;8.198;2024-03-17T06:22:28;6.45;;;3.05;;
75156;SDS011;63736;50.076;8.198;2024-03-17T06:23:58;8.20;;;3.73;;
75156;SDS011;63736;50.076;8.198;2024-03-17T06:25:28;8.53;;;3.70;;
75156;SDS011;63736;50.076;8.198;2024-03-17T06:26:59;6.90;;;3.50;;
75156;SDS011;63736;50.076;8.198;2024-03-17T06:28:29;9.05;;;3.83;;
75156;SDS011;63736;50.076;8.198;2024-03-17T06:30:00;8.33;;;3.50;;
75156;SDS011;63736;50.076;8.198;2024-03-17T06:31:34;9.25;;;4.15;;
75156;SDS011;63736;50.076;8.198;2024-03-17T06:33:04;7.20;;;3.20;;
75156;SDS011;63736;50.076;8.198;2024-03-17T06:34:35;7.53;;;3.45;;
75156;SDS011;63736;50.076;8.198;2024-03-17T06:36:05;7.13;;;3.03;;
75156;SDS011;63736;50.076;8.198;2024-03-17T06:37:36;7.00;;;2.95;;
75156;SDS011;63736;50.076;8.198;2024-03-17T06:39:07;6.83;;;2.80;;
75156;SDS011;63736;50.076;8.198;2024-03-17T06:40:37;14.07;;;6.53;;
75156;SDS011;63736;50.076;8.198;2024-03-17T06:42:08;21.60;;;10.00;;
75156;SDS011;63736;50.076;8.198;2024-03-17T06:43:39;24.15;;;10.70;;
75156;SDS011;63736;50.076;8.198;2024-03-17T06:45:09;31.27;;;14.80;;
75156;SDS011;63736;50.076;8.198;2024-03-17T06:46:40;14.73;;;7.03;;
75156;SDS011;63736;50.076;8.198;2024-03-17T06:48:10;10.60;;;4.50;;
75156;SDS011;63736;50.076;8.198;2024-03-17T06:49:41;11.27;;;4.97;;
75156;SDS011;63736;50.076;8.198;2024-03-17T06:51:12;10.68;;;4.53;;
75156;SDS011;63736;50.076;8.198;2024-03-17T06:52:43;10.97;;;5.47;;
75156;SDS011;63736;50.076;8.198;2024-03-17T06:54:13;11.53;;;4.67;;
75156;SDS011;63736;50.076;8.198;2024-03-17T06:55:43;8.70;;;3.90;;
75156;SDS011;63736;50.076;8.198;2024-03-17T06:57:16;11.13;;;3.75;;
75156;SDS011;63736;50.076;8.198;2024-03-17T06:58:46;8.43;;;3.47;;
75156;SDS011;63736;50.076;8.198;2024-03-17T07:00:17;8.20;;;3.50;;
75156;SDS011;63736;50.076;8.198;2024-03-17T07:01:47;8.33;;;3.30;;
75156;SDS011;63736;50.076;8.198;2024-03-17T07:03:18;6.63;;;2.83;;
75156;SDS011;63736;50.076;8.198;2024-03-17T07:04:48;6.25;;;2.97;;
75156;SDS011;63736;50.076;8.198;2024-03-17T07:06:18;6.60;;;2.93;;
75156;SDS011;63736;50.076;8.198;2024-03-17T07:07:49;6.50;;;2.83;;
75156;SDS011;63736;50.076;8.198;2024-03-17T07:09:19;5.67;;;2.50;;
75156;SDS011;63736;50.076;8.198;2024-03-17T07:11:02;6.40;;;2.83;;
75156;SDS011;63736;50.076;8.198;2024-03-17T07:12:33;5.15;;;2.58;;
75156;SDS011;63736;50.076;8.198;2024-03-17T07:14:04;8.55;;;2.70;;
75156;SDS011;63736;50.076;8.198;2024-03-17T07:15:34;6.77;;;2.87;;
75156;SDS011;63736;50.076;8.198;2024-03-17T07:17:04;6.40;;;2.80;;
75156;SDS011;63736;50.076;8.198;2024-03-17T07:18:35;6.47;;;2.53;;
75156;SDS011;63736;50.076;8.198;2024-03-17T07:20:07;5.88;;;2.60;;
75156;SDS011;63736;50.076;8.198;2024-03-17T07:21:38;5.75;;;2.60;;
75156;SDS011;63736;50.076;8.198;2024-03-17T07:23:09;4.90;;;2.20;;
75156;SDS011;63736;50.076;8.198;2024-03-17T07:24:39;4.97;;;2.40;;
75156;SDS011;63736;50.076;8.198;2024-03-17T07:26:09;5.40;;;2.20;;
75156;SDS011;63736;50.076;8.198;2024-03-17T07:27:39;5.80;;;2.30;;
75156;SDS011;63736;50.076;8.198;2024-03-17T07:29:10;4.70;;;2.20;;
75156;SDS011;63736;50.076;8.198;2024-03-17T07:30:45;4.55;;;1.77;;
75156;SDS011;63736;50.076;8.198;2024-03-17T07:32:16;6.57;;;2.20;;
75156;SDS011;63736;50.076;8.198;2024-03-17T07:33:47;6.40;;;2.03;;
75156;SDS011;63736;50.076;8.198;2024-03-17T07:35:18;6.77;;;2.23;;
75156;SDS011;63736;50.076;8.198;2024-03-17T07:36:48;5.47;;;1.90;;
75156;SDS011;63736;50.076;8.198;2024-03-17T07:38:18;5.40;;;1.90;;
75156;SDS011;63736;50.076;8.198;2024-03-17T07:39:49;4.43;;;1.70;;
75156;SDS011;63736;50.076;8.198;2024-03-17T07:41:19;5.27;;;2.37;;
75156;SDS011;63736;50.076;8.198;2024-03-17T07:42:49;4.90;;;2.10;;
75156;SDS011;63736;50.076;8.198;2024-03-17T07:44:20;4.47;;;1.70;;
75156;SDS011;63736;50.076;8.198;2024-03-17T07:45:56;5.63;;;2.13;;
75156;SDS011;63736;50.076;8.198;2024-03-17T07:47:30;4.10;;;1.80;;
75156;SDS011;63736;50.076;8.198;2024-03-17T07:49:05;4.30;;;1.90;;
75156;SDS011;63736;50.076;8.198;2024-03-17T07:50:36;9.37;;;2.30;;
75156;SDS011;63736;50.076;8.198;2024-03-17T07:52:06;5.60;;;2.20;;
75156;SDS011;63736;50.076;8.198;2024-03-17T07:53:36;4.27;;;2.07;;
75156;SDS011;63736;50.076;8.198;2024-03-17T07:55:08;6.05;;;2.28;;
75156;SDS011;63736;50.076;8.198;2024-03-17T07:56:39;4.75;;;2.10;;
75156;SDS011;63736;50.076;8.198;2024-03-17T07:58:09;6.13;;;2.20;;
75156;SDS011;63736;50.076;8.198;2024-03-17T07:59:40;5.13;;;2.30;;
75156;SDS011;63736;50.076;8.198;2024-03-17T08:01:11;5.37;;;2.60;;
75156;SDS011;63736;50.076;8.198;2024-03-17T08:02:44;5.95;;;3.20;;
75156;SDS011;63736;50.076;8.198;2024-03-17T08:04:15;4.80;;;2.40;;
75156;SDS011;63736;50.076;8.198;2024-03-17T08:05:47;6.53;;;2.83;;
75156;SDS011;63736;50.076;8.198;2024-03-17T08:07:19;7.07;;;2.50;;
75156;SDS011;63736;50.076;8.198;2024-03-17T08:08:49;6.30;;;2.77;;
75156;SDS011;63736;50.076;8.198;2024-03-17T08:10:19;6.00;;;2.60;;
75156;SDS011;63736;50.076;8.198;2024-03-17T08:11:51;7.43;;;2.78;;
75156;SDS011;63736;50.076;8.198;2024-03-17T08:13:22;5.80;;;2.17;;
75156;SDS011;63736;50.076;8.198;2024-03-17T08:14:53;5.57;;;2.63;;
75156;SDS011;63736;50.076;8.198;2024-03-17T08:16:23;6.60;;;2.83;;
75156;SDS011;63736;50.076;8.198;2024-03-17T08:17:53;6.27;;;3.10;;
75156;SDS011;63736;50.076;8.198;2024-03-17T08:19:24;6.70;;;3.33;;
75156;SDS011;63736;50.076;8.198;2024-03-17T08:20:54;5.93;;;2.93;;
75156;SDS011;63736;50.076;8.198;2024-03-17T08:22:25;7.15;;;2.97;;
75156;SDS011;63736;50.076;8.198;2024-03-17T08:23:55;6.17;;;3.43;;
75156;SDS011;63736;50.076;8.198;2024-03-17T08:25:25;7.23;;;3.97;;
75156;SDS011;63736;50.076;8.198;2024-03-17T08:26:56;7.27;;;4.40;;
75156;SDS011;63736;50.076;8.198;2024-03-17T08:28:26;7.30;;;4.00;;
75156;SDS011;63736;50.076;8.198;2024-03-17T08:29:57;7.53;;;3.70;;
75156;SDS011;63736;50.076;8.198;2024-03-17T08:31:28;6.93;;;3.67;;
75156;SDS011;63736;50.076;8.198;2024-03-17T08:32:58;9.30;;;3.80;;
75156;SDS011;63736;50.076;8.198;2024-03-17T08:34:29;7.95;;;4.30;;
75156;SDS011;63736;50.076;8.198;2024-03-17T08:37:35;7.63;;;4.18;;
75156;SDS011;63736;50.076;8.198;2024-03-17T08:39:06;7.73;;;4.20;;
75156;SDS011;63736;50.076;8.198;2024-03-17T08:40:39;7.57;;;4.47;;
75156;SDS011;63736;50.076;8.198;2024-03-17T08:42:11;7.80;;;3.90;;
75156;SDS011;63736;50.076;8.198;2024-03-17T08:43:41;9.87;;;4.27;;
75156;SDS011;63736;50.076;8.198;2024-03-17T08:45:13;8.65;;;4.28;;
75156;SDS011;63736;50.076;8.198;2024-03-17T08:46:43;10.43;;;4.93;;
75156;SDS011;63736;50.076;8.198;2024-03-17T08:48:14;11.10;;;4.33;;
75156;SDS011;63736;50.076;8.198;2024-03-17T08:49:44;10.00;;;4.40;;
75156;SDS011;63736;50.076;8.198;2024-03-17T08:51:14;8.98;;;4.20;;
75156;SDS011;63736;50.076;8.198;2024-03-17T08:52:45;9.50;;;5.47;;
75156;SDS011;63736;50.076;8.198;2024-03-17T08:54:15;10.23;;;5.33;;
75156;SDS011;63736;50.076;8.198;2024-03-17T08:55:48;10.13;;;5.23;;
75156;SDS011;63736;50.076;8.198;2024-03-17T08:57:29;15.63;;;6.65;;
75156;SDS011;63736;50.076;8.198;2024-03-17T08:58:59;20.63;;;10.67;;
75156;SDS011;63736;50.076;8.198;2024-03-17T09:00:30;16.03;;;7.33;;
75156;SDS011;63736;50.076;8.198;2024-03-17T09:02:02;16.95;;;7.47;;
75156;SDS011;63736;50.076;8.198;2024-03-17T09:03:34;10.38;;;5.70;;
75156;SDS011;63736;50.076;8.198;2024-03-17T09:05:04;10.40;;;5.20;;
75156;SDS011;63736;50.076;8.198;2024-03-17T09:06:35;10.03;;;4.53;;
75156;SDS011;63736;50.076;8.198;2024-03-17T09:08:06;10.23;;;5.27;;
75156;SDS011;63736;50.076;8.198;2024-03-17T09:09:40;15.30;;;7.78;;